»·PEaware :: N6591P KOTH-KACV

N6591P :: KOTH-KACV

FLIGHT INFORMATION

Flight Status: Arrived
Operator: Privately registered:
United States
More flights under this callsign
Pilot: Paul T. (5885)
Aircraft: PIPER PA-24 COMMANCHE
(PA24)
More flights by this aircraft type
Origin: KOTH North Bend Mun
United States
Destination: KACV Arcata
United States
More flights between these airports :: More routes between these airports
Route: OTH6 OTH V27 CULDU
File this flight plan on PilotEdge
Remarks: wx as16
Altitude:
(Current/Filed)
8,000ft
Speed:
(Current/Filed)
150kts
Departed: 18-Feb-17 10:29 AM
Arrived: 18-Feb-17 12:03 PM
Distance/Time
Traveled:
147nm/1:34
Distance/Time
To Go:
Arrived

Flight Plot

Page will automatically refresh every two minutes.

Flight plan parsing failed; only flown route is shown


Map Options




Map Legend


Flown Route
Filed Route
Departure Airport
Arrival Airport
Navaid (VOR, NDB)
Fix

Horizontal Profiles

Position Reports

Time Latitude Longitude Heading Altitude Ground
Speed
18-Feb-17 10:19 43.414808 -124.246133 240 20ft 0kts
18-Feb-17 10:20 43.414752 -124.245984 67 20ft 3kts
18-Feb-17 10:21 43.414677 -124.243788 134 20ft 7kts
18-Feb-17 10:22 43.411964 -124.241498 149 20ft 14kts
18-Feb-17 10:23 43.409418 -124.239476 148 20ft 0kts
18-Feb-17 10:24 43.409412 -124.239471 148 20ft 0kts
18-Feb-17 10:25 43.409410 -124.239469 148 20ft 0kts
18-Feb-17 10:26 43.409408 -124.239467 148 20ft 0kts
18-Feb-17 10:27 43.409406 -124.239466 148 20ft 0kts
18-Feb-17 10:28 43.409403 -124.239464 148 20ft 0kts
18-Feb-17 10:29 43.409401 -124.239462 148 20ft 0kts
18-Feb-17 10:29 43.410836 -124.239107 329 20ft 43kts
18-Feb-17 10:30 43.429447 -124.255648 288 705ft 86kts
18-Feb-17 10:31 43.421163 -124.286566 292 1663ft 79kts
18-Feb-17 10:32 43.438425 -124.283521 55 2599ft 86kts
18-Feb-17 10:33 43.431529 -124.243848 106 3598ft 113kts
18-Feb-17 10:34 43.421493 -124.199426 104 4675ft 127kts
18-Feb-17 10:35 43.408454 -124.155597 156 5815ft 122kts
18-Feb-17 10:36 43.377047 -124.161688 198 6899ft 111kts
18-Feb-17 10:37 43.344835 -124.168528 196 7823ft 117kts
18-Feb-17 10:38 43.310054 -124.168484 192 8141ft 146kts
18-Feb-17 10:39 43.267268 -124.170706 181 8123ft 156kts
18-Feb-17 10:40 43.223172 -124.172486 188 8050ft 160kts
18-Feb-17 10:41 43.179021 -124.171918 183 8095ft 159kts
18-Feb-17 10:42 43.135278 -124.182518 196 8010ft 159kts
18-Feb-17 10:43 43.091515 -124.190613 179 8044ft 157kts
18-Feb-17 10:44 43.047191 -124.186944 179 7958ft 165kts
18-Feb-17 10:45 43.002705 -124.187448 185 8038ft 158kts
18-Feb-17 10:46 42.958888 -124.190521 183 8061ft 160kts
18-Feb-17 10:47 42.914395 -124.188619 181 8040ft 163kts
18-Feb-17 10:48 42.869442 -124.189829 185 8017ft 161kts
18-Feb-17 10:49 42.824980 -124.192996 192 8024ft 159kts
18-Feb-17 10:50 42.781099 -124.198240 187 8056ft 159kts
18-Feb-17 10:51 42.736737 -124.204548 188 8021ft 160kts
18-Feb-17 10:52 42.691944 -124.206235 185 8054ft 157kts
18-Feb-17 10:53 42.647818 -124.209162 186 8023ft 161kts
18-Feb-17 10:54 42.603014 -124.212375 184 8021ft 160kts
18-Feb-17 10:55 42.558198 -124.210835 182 8018ft 160kts
18-Feb-17 10:56 42.513786 -124.217563 188 8017ft 159kts
18-Feb-17 10:57 42.470024 -124.219624 180 8071ft 159kts
18-Feb-17 10:58 42.425596 -124.222365 182 8075ft 158kts
18-Feb-17 10:59 42.381140 -124.222548 178 8097ft 159kts
18-Feb-17 11:00 42.336448 -124.220333 183 8088ft 159kts
18-Feb-17 11:01 42.291873 -124.222924 186 8066ft 160kts
18-Feb-17 11:02 42.267909 -124.226259 189 8048ft 161kts
18-Feb-17 11:03 42.267909 -124.226259 189 8048ft 161kts
18-Feb-17 11:04 42.267909 -124.226259 189 8048ft 161kts
18-Feb-17 11:05 42.267909 -124.226259 189 8048ft 161kts
18-Feb-17 11:06 42.267909 -124.226259 189 8048ft 161kts
18-Feb-17 11:07 42.267909 -124.226259 189 8048ft 161kts
18-Feb-17 11:08 42.267909 -124.226259 189 8048ft 161kts
18-Feb-17 11:09 42.267909 -124.226259 189 8048ft 161kts
18-Feb-17 11:10 42.267909 -124.226259 189 8048ft 161kts
18-Feb-17 11:11 42.267909 -124.226259 189 8048ft 161kts
18-Feb-17 11:12 42.267909 -124.226259 189 8048ft 161kts
18-Feb-17 11:13 42.267909 -124.226259 189 8048ft 161kts
18-Feb-17 11:14 42.267909 -124.226259 189 8048ft 161kts
18-Feb-17 11:15 42.267909 -124.226259 189 8048ft 161kts
18-Feb-17 11:16 42.267909 -124.226259 189 8048ft 161kts
18-Feb-17 11:17 42.267909 -124.226259 189 8048ft 161kts
18-Feb-17 11:26 41.471766 -124.162670 199 7722ft 174kts
18-Feb-17 11:27 41.431458 -124.194056 206 7356ft 160kts
18-Feb-17 11:28 41.392038 -124.212366 205 7918ft 137kts
18-Feb-17 11:29 41.353591 -124.236325 210 7928ft 153kts
18-Feb-17 11:30 41.315675 -124.263144 200 8100ft 157kts
18-Feb-17 11:31 41.270030 -124.253678 163 7904ft 175kts
18-Feb-17 11:32 41.225486 -124.240364 187 8102ft 162kts
18-Feb-17 11:33 41.179779 -124.242008 182 8122ft 168kts
18-Feb-17 11:34 41.132663 -124.238481 166 8024ft 171kts
18-Feb-17 11:35 41.089369 -124.207304 145 7415ft 178kts
18-Feb-17 11:36 41.048160 -124.172069 149 6993ft 171kts
18-Feb-17 11:37 41.006562 -124.140946 155 6615ft 167kts
18-Feb-17 11:38 40.967296 -124.109260 140 6328ft 163kts
18-Feb-17 11:39 40.926728 -124.084929 163 6157ft 156kts
18-Feb-17 11:40 40.888186 -124.060735 145 5985ft 160kts
18-Feb-17 11:41 40.850850 -124.030031 151 6083ft 165kts
18-Feb-17 11:42 40.811309 -123.999431 151 6175ft 164kts
18-Feb-17 11:43 40.769927 -123.972004 148 6185ft 166kts
18-Feb-17 11:44 40.732292 -123.948629 165 6070ft 132kts
18-Feb-17 11:45 40.701426 -123.927308 135 6173ft 135kts
18-Feb-17 11:46 40.670525 -123.907669 160 6255ft 110kts
18-Feb-17 11:47 40.660817 -123.917433 347 6318ft 82kts
18-Feb-17 11:48 40.684933 -123.916693 4 6335ft 83kts
18-Feb-17 11:49 40.707472 -123.926370 336 6088ft 93kts
18-Feb-17 11:50 40.731300 -123.940330 329 5477ft 89kts
18-Feb-17 11:51 40.752286 -123.955489 332 4996ft 86kts
18-Feb-17 11:52 40.772733 -123.968937 333 4411ft 80kts
18-Feb-17 11:53 40.793223 -123.982527 331 3939ft 82kts
18-Feb-17 11:54 40.815387 -123.996032 333 3866ft 84kts
18-Feb-17 11:55 40.835726 -124.010698 328 3352ft 80kts
18-Feb-17 11:56 40.854609 -124.026229 326 2917ft 81kts
18-Feb-17 11:57 40.874333 -124.039736 334 2364ft 82kts
18-Feb-17 11:58 40.894858 -124.052029 335 1887ft 80kts
18-Feb-17 11:59 40.915329 -124.065124 332 1657ft 79kts
18-Feb-17 12:00 40.934818 -124.079691 331 1057ft 82kts
18-Feb-17 12:01 40.955081 -124.092869 330 593ft 78kts
18-Feb-17 12:02 40.972712 -124.104608 329 228ft 58kts
18-Feb-17 12:03 40.976972 -124.108289 215 221ft 0kts
18-Feb-17 12:04 40.974231 -124.106951 172 221ft 12kts
18-Feb-17 12:05 40.973140 -124.108063 239 221ft 0kts
18-Feb-17 12:06 40.973138 -124.108067 239 221ft 0kts
18-Feb-17 12:07 40.973138 -124.108067 239 221ft 0kts

Navigation Log

Ident Type
Flight plan parsing failed, navigation log unavailable